Time;durP1;ratioP1;P1;durP2;ratioP2;P2;SDS_P1;SDS_P2;PMS_P1;PMS_P2;Temp;Humidity;BMP_temperature;BMP_pressure;BME280_temperature;BME280_humidity;BME280_pressure;Samples;Min_cycle;Max_cycle;Signal;HPM_P1;HPM_P2
2022/04/18 00:00:32;;;;;;;20.60;13.93;;;28.80;95.00;;;;;;4164427;28;20041;-72
2022/04/18 00:02:38;;;;;;;18.23;12.88;;;28.80;94.90;;;;;;4163071;28;20124;-72
2022/04/18 00:04:43;;;;;;;20.88;12.80;;;28.80;94.70;;;;;;4160084;28;20058;-72
2022/04/18 00:06:50;;;;;;;19.45;12.55;;;28.80;94.60;;;;;;4159672;28;20092;-72
2022/04/18 00:08:56;;;;;;;15.40;11.73;;;28.80;94.60;;;;;;4164160;28;20132;-71
2022/04/18 00:11:01;;;;;;;17.02;12.55;;;28.80;94.40;;;;;;4164964;28;20065;-71
2022/04/18 00:13:07;;;;;;;16.90;12.40;;;28.80;94.30;;;;;;4114256;28;20046;-71
2022/04/18 00:15:13;;;;;;;17.65;12.45;;;28.90;94.30;;;;;;4160763;28;20652;-72
2022/04/18 00:17:18;;;;;;;18.40;12.02;;;28.90;94.00;;;;;;4162916;28;20047;-72
2022/04/18 00:19:23;;;;;;;16.85;12.00;;;28.90;94.00;;;;;;4163459;28;20062;-71
2022/04/18 00:21:28;;;;;;;17.58;12.18;;;28.90;94.10;;;;;;4158550;28;20148;-71
2022/04/18 00:23:32;;;;;;;18.95;12.65;;;28.90;94.00;;;;;;4160212;28;20093;-71
2022/04/18 00:25:37;;;;;;;16.48;11.88;;;29.00;93.80;;;;;;4155047;28;20120;-71
2022/04/18 00:27:44;;;;;;;17.10;11.80;;;29.00;93.80;;;;;;4154865;28;20054;-71
2022/04/18 00:29:50;;;;;;;19.13;11.57;;;29.00;93.50;;;;;;4153801;28;20042;-71
2022/04/18 00:31:55;;;;;;;16.42;11.80;;;29.00;93.30;;;;;;4160572;28;20067;-70
2022/04/18 00:34:03;;;;;;;15.88;11.77;;;29.10;93.40;;;;;;4157817;28;20121;-71
2022/04/18 00:36:08;;;;;;;15.75;11.48;;;29.10;93.20;;;;;;4154444;28;20042;-72
2022/04/18 00:38:14;;;;;;;14.52;11.48;;;29.20;93.10;;;;;;4172827;28;20131;-71
2022/04/18 00:40:21;;;;;;;15.70;11.35;;;29.20;93.10;;;;;;4169142;28;20106;-70
2022/04/18 00:42:26;;;;;;;22.05;11.20;;;29.20;93.10;;;;;;4153870;28;20161;-70
2022/04/18 00:44:39;;;;;;;21.02;12.02;;;29.20;92.90;;;;;;4146791;28;20116;-71
2022/04/18 00:46:44;;;;;;;37.28;14.57;;;29.20;93.00;;;;;;4151404;28;20120;-69
2022/04/18 00:48:49;;;;;;;24.48;12.68;;;29.20;93.10;;;;;;4153976;28;20049;-71
2022/04/18 00:50:57;;;;;;;21.05;11.70;;;29.20;93.00;;;;;;4151698;28;20045;-71
2022/04/18 00:53:04;;;;;;;19.73;11.68;;;29.30;93.00;;;;;;4153071;28;20109;-70
2022/04/18 00:55:16;;;;;;;21.58;11.13;;;29.30;92.90;;;;;;4155166;28;20064;-72
2022/04/18 00:57:23;;;;;;;17.63;11.38;;;29.30;92.70;;;;;;4153630;28;20519;-71
2022/04/18 00:59:32;;;;;;;23.38;11.45;;;29.30;92.60;;;;;;4169818;28;20049;-70
2022/04/18 01:01:38;;;;;;;18.73;10.55;;;29.40;92.70;;;;;;4156445;28;20110;-71
2022/04/18 01:03:47;;;;;;;20.45;11.25;;;29.30;92.40;;;;;;4169882;28;20095;-71
2022/04/18 01:05:53;;;;;;;15.00;10.02;;;29.40;92.30;;;;;;4145915;28;20057;-71
2022/04/18 01:07:59;;;;;;;19.13;10.70;;;29.40;92.20;;;;;;4154941;28;20052;-70
2022/04/18 01:10:07;;;;;;;16.73;10.85;;;29.50;92.30;;;;;;4135985;28;20046;-71
2022/04/18 01:12:12;;;;;;;15.45;10.98;;;29.50;92.00;;;;;;4149535;28;20041;-70
2022/04/18 01:14:36;;;;;;;;;;;29.60;92.20;;;;;;4145169;28;20520;-71
2022/04/18 01:16:55;;;;;;;27.38;11.23;;;29.50;91.80;;;;;;4161737;28;19932;-71
2022/04/18 01:19:01;;;;;;;19.58;10.20;;;29.60;92.10;;;;;;4134542;28;20088;-71
2022/04/18 01:21:19;;;;;;;26.10;11.25;;;29.70;91.90;;;;;;4149673;28;20060;-71
2022/04/18 01:23:38;;;;;;;21.83;10.70;;;29.70;91.70;;;;;;4153530;28;20104;-70
2022/04/18 01:30:30;;;;;;;14.55;10.57;;;29.80;91.70;;;;;;4147615;28;20091;-70
2022/04/18 01:32:45;;;;;;;37.28;13.32;;;29.70;91.30;;;;;;4150415;28;20046;-70
2022/04/18 01:34:51;;;;;;;66.10;18.48;;;29.70;91.60;;;;;;4158276;28;20180;-68
2022/04/18 01:36:58;;;;;;;31.23;13.43;;;29.70;91.70;;;;;;4145662;28;20554;-70
2022/04/18 01:39:06;;;;;;;31.88;13.13;;;29.80;91.70;;;;;;4153614;28;20053;-70
2022/04/18 01:41:11;;;;;;;54.63;20.48;;;29.90;91.80;;;;;;4159903;28;20049;-69
2022/04/18 01:43:18;;;;;;;47.90;19.00;;;30.00;91.90;;;;;;4171899;28;20083;-72
2022/04/18 01:45:27;;;;;;;32.47;15.90;;;30.00;91.80;;;;;;4161380;28;20037;-72
2022/04/18 01:47:48;;;;;;;30.88;13.70;;;30.10;91.60;;;;;;4148129;28;20077;-71
2022/04/18 01:49:55;;;;;;;17.52;11.05;;;30.30;91.20;;;;;;4163728;28;20160;-71
2022/04/18 01:52:08;;;;;;;15.60;10.38;;;30.20;91.30;;;;;;4158901;28;20145;-70
2022/04/18 01:54:19;;;;;;;15.98;9.82;;;30.20;91.40;;;;;;4162005;28;20095;-71
2022/04/18 01:56:26;;;;;;;18.70;10.93;;;30.20;91.00;;;;;;4136677;28;20092;-73
2022/04/18 01:58:34;;;;;;;32.65;14.65;;;30.10;91.00;;;;;;4160275;28;20092;-72
2022/04/18 02:00:40;;;;;;;29.38;16.55;;;30.10;91.30;;;;;;4170139;28;20045;-72
2022/04/18 02:02:47;;;;;;;33.15;26.83;;;30.20;91.20;;;;;;4113565;28;20057;-72
2022/04/18 02:04:54;;;;;;;38.53;26.80;;;30.20;91.00;;;;;;4146863;28;20052;-72
2022/04/18 02:07:00;;;;;;;31.88;21.50;;;30.30;91.20;;;;;;4144462;28;20049;-72
2022/04/18 02:09:07;;;;;;;27.50;17.38;;;30.30;91.00;;;;;;4164163;28;20061;-75
2022/04/18 02:11:17;;;;;;;22.27;14.38;;;30.40;91.20;;;;;;4162971;28;20079;-71
2022/04/18 02:13:23;;;;;;;21.25;12.95;;;30.40;91.40;;;;;;4167560;28;20450;-72
2022/04/18 02:15:28;;;;;;;26.63;14.25;;;30.40;91.00;;;;;;4140778;28;20073;-69
2022/04/18 02:17:41;;;;;;;19.63;12.15;;;30.40;90.80;;;;;;4113622;28;20153;-69
2022/04/18 02:19:52;;;;;;;16.40;10.32;;;30.30;90.90;;;;;;4115393;28;20081;-69
2022/04/18 02:21:59;;;;;;;18.48;10.73;;;30.50;91.00;;;;;;4117042;28;20069;-68
2022/04/18 02:24:05;;;;;;;23.02;11.32;;;30.50;90.90;;;;;;4127081;28;20556;-67
2022/04/18 02:26:10;;;;;;;14.70;10.52;;;30.50;90.80;;;;;;4122216;28;20124;-69
2022/04/18 02:28:26;;;;;;;14.38;10.60;;;30.60;90.60;;;;;;4120215;28;20050;-69
2022/04/18 02:30:36;;;;;;;16.00;11.35;;;30.60;90.70;;;;;;4126513;28;20069;-69
2022/04/18 02:32:49;;;;;;;18.80;11.18;;;30.60;90.50;;;;;;4119345;28;20129;-70
2022/04/18 02:34:56;;;;;;;14.63;10.77;;;30.60;90.40;;;;;;4118786;28;20047;-69
2022/04/18 02:37:03;;;;;;;16.83;11.82;;;30.70;90.40;;;;;;4103118;28;20063;-69
2022/04/18 02:39:11;;;;;;;19.67;11.77;;;30.70;90.50;;;;;;4096045;28;20047;-69
2022/04/18 02:41:19;;;;;;;14.85;10.48;;;30.80;90.30;;;;;;4137472;28;20398;-69
2022/04/18 02:43:29;;;;;;;17.58;11.98;;;30.90;90.30;;;;;;4141598;28;20104;-69
2022/04/18 02:45:42;;;;;;;18.17;11.45;;;30.90;90.30;;;;;;4135906;28;20048;-69
2022/04/18 02:48:05;;;;;;;17.60;10.98;;;30.90;90.00;;;;;;4137524;28;20413;-67
2022/04/18 02:50:15;;;;;;;18.65;11.48;;;31.00;90.20;;;;;;4150079;28;20049;-69
2022/04/18 02:52:21;;;;;;;18.13;11.55;;;31.00;90.20;;;;;;4152051;28;20060;-69
2022/04/18 02:54:28;;;;;;;15.75;11.10;;;31.00;90.10;;;;;;4150547;28;20676;-69
2022/04/18 02:56:43;;;;;;;20.02;11.38;;;31.10;90.10;;;;;;4142268;28;20481;-69
2022/04/18 02:58:51;;;;;;;19.52;11.23;;;31.10;90.00;;;;;;4160392;28;20056;-69
2022/04/18 03:00:59;;;;;;;17.55;10.88;;;31.10;90.00;;;;;;4131366;28;20057;-69
2022/04/18 03:03:10;;;;;;;16.45;10.95;;;31.30;90.10;;;;;;4163251;28;20053;-69
2022/04/18 03:05:16;;;;;;;17.92;11.10;;;31.40;90.50;;;;;;4149626;28;20436;-68
2022/04/18 03:07:25;;;;;;;17.60;11.45;;;31.50;90.20;;;;;;4144627;28;20056;-68
2022/04/18 03:09:33;;;;;;;19.80;12.35;;;31.50;90.00;;;;;;4132942;28;20084;-68
2022/04/18 03:11:38;;;;;;;22.83;12.48;;;31.50;89.70;;;;;;4147614;28;20042;-68
2022/04/18 03:13:46;;;;;;;18.05;11.63;;;31.60;89.70;;;;;;4124802;28;20104;-70
2022/04/18 03:16:06;;;;;;;20.67;12.45;;;31.60;89.70;;;;;;4144568;28;20057;-68
2022/04/18 03:18:14;;;;;;;22.90;12.15;;;31.60;89.80;;;;;;4151411;28;20556;-68
2022/04/18 03:20:21;;;;;;;17.02;11.75;;;31.70;90.00;;;;;;4152919;28;20053;-68
2022/04/18 03:22:30;;;;;;;16.95;12.00;;;31.80;89.90;;;;;;4144073;28;20050;-69
2022/04/18 03:24:43;;;;;;;18.30;11.65;;;31.80;89.60;;;;;;4159489;28;20045;-68
2022/04/18 03:26:54;;;;;;;17.70;11.82;;;31.90;89.00;;;;;;4166926;28;20045;-68
2022/04/18 03:29:07;;;;;;;19.15;11.70;;;31.90;89.20;;;;;;4149260;28;20779;-67
2022/04/18 03:31:13;;;;;;;21.77;12.63;;;31.90;88.60;;;;;;4134442;28;20046;-68
2022/04/18 03:33:18;;;;;;;19.92;12.68;;;31.90;88.20;;;;;;4153652;28;20053;-68
2022/04/18 03:35:25;;;;;;;19.35;12.10;;;31.90;88.70;;;;;;4163515;28;20041;-68
2022/04/18 03:39:50;;;;;;;20.35;12.13;;;32.10;88.20;;;;;;4134211;28;20043;-70
2022/04/18 03:42:02;;;;;;;17.08;11.63;;;32.10;87.50;;;;;;4162962;28;20052;-69
2022/04/18 03:44:09;;;;;;;17.30;11.55;;;32.10;86.50;;;;;;4166226;28;20043;-67
2022/04/18 03:46:17;;;;;;;21.63;12.40;;;32.20;87.60;;;;;;4163908;28;20038;-68
2022/04/18 03:48:26;;;;;;;18.55;12.23;;;32.30;87.90;;;;;;4156722;28;20034;-68
2022/04/18 03:50:32;;;;;;;18.30;12.63;;;32.40;88.20;;;;;;4142552;28;20640;-69
2022/04/18 03:52:39;;;;;;;16.60;11.80;;;32.40;87.70;;;;;;4151321;28;20139;-69
2022/04/18 03:55:07;;;;;;;16.73;12.32;;;32.40;87.80;;;;;;4152760;28;20473;-70
2022/04/18 03:57:14;;;;;;;15.82;12.07;;;32.40;87.90;;;;;;4153382;28;20060;-69
2022/04/18 03:59:29;;;;;;;19.80;12.52;;;32.50;88.00;;;;;;4153382;28;20037;-68
2022/04/18 04:01:40;;;;;;;20.98;12.27;;;32.60;87.60;;;;;;4159974;28;20045;-68
2022/04/18 04:03:47;;;;;;;21.42;13.23;;;32.70;87.70;;;;;;4158388;28;20073;-68
2022/04/18 04:05:58;;;;;;;19.00;13.07;;;32.80;87.30;;;;;;4152793;28;20128;-69
2022/04/18 04:08:06;;;;;;;19.73;13.10;;;32.90;87.90;;;;;;4149304;28;20169;-68
2022/04/18 04:10:12;;;;;;;19.52;12.48;;;32.90;87.20;;;;;;4158187;28;20080;-71
2022/04/18 04:12:28;;;;;;;21.13;12.77;;;32.90;87.00;;;;;;4152469;28;20052;-71
2022/04/18 04:14:55;;;;;;;16.88;13.00;;;32.80;87.30;;;;;;4153451;28;20048;-72
2022/04/18 04:17:11;;;;;;;15.98;11.82;;;32.90;87.10;;;;;;4150624;28;20042;-72
2022/04/18 04:19:41;;;;;;;21.55;14.05;;;33.00;86.70;;;;;;4161506;28;20061;-72
2022/04/18 04:22:01;;;;;;;21.88;13.32;;;32.90;86.60;;;;;;4138600;28;20048;-73
2022/04/18 04:24:07;;;;;;;22.38;13.35;;;33.00;86.20;;;;;;4158142;28;20053;-72
2022/04/18 04:26:17;;;;;;;22.80;13.45;;;33.10;86.30;;;;;;4133590;28;20034;-72
2022/04/18 04:28:29;;;;;;;21.35;13.77;;;33.10;85.70;;;;;;4157829;28;20688;-72
2022/04/18 04:30:35;;;;;;;20.10;13.25;;;33.10;85.70;;;;;;4149849;28;20041;-69
2022/04/18 04:32:43;;;;;;;21.38;14.27;;;33.20;85.50;;;;;;4151669;28;20073;-71
2022/04/18 04:34:53;;;;;;;20.48;13.85;;;33.10;85.70;;;;;;4149966;28;20042;-72
2022/04/18 04:37:08;;;;;;;20.25;13.75;;;33.10;85.80;;;;;;4160075;28;20551;-70
2022/04/18 04:39:19;;;;;;;20.42;14.05;;;33.20;85.80;;;;;;4138485;28;20046;-73
2022/04/18 04:41:27;;;;;;;21.27;15.30;;;33.30;85.60;;;;;;4152637;28;20412;-71
2022/04/18 04:43:35;;;;;;;23.33;13.60;;;33.20;85.90;;;;;;4158801;28;20052;-71
2022/04/18 04:45:44;;;;;;;22.25;14.20;;;33.10;85.80;;;;;;4163954;28;20091;-71
2022/04/18 04:47:59;;;;;;;21.63;13.85;;;32.90;85.90;;;;;;4156783;28;20049;-71
2022/04/18 04:50:08;;;;;;;19.20;12.98;;;32.90;86.60;;;;;;4155415;28;20057;-72
2022/04/18 04:52:22;;;;;;;15.98;13.00;;;32.90;87.00;;;;;;4170686;28;20052;-71
2022/04/18 04:54:28;;;;;;;19.88;12.25;;;32.80;87.00;;;;;;4152499;28;20049;-71
2022/04/18 04:56:33;;;;;;;19.08;13.10;;;32.80;87.00;;;;;;4168207;28;20128;-70
2022/04/18 04:58:41;;;;;;;20.58;13.15;;;32.90;87.10;;;;;;4167906;28;20045;-71
2022/04/18 05:00:48;;;;;;;23.75;13.35;;;32.90;87.50;;;;;;4156287;28;20045;-71
2022/04/18 05:03:05;;;;;;;19.35;13.55;;;33.00;87.40;;;;;;4126936;28;20076;-70
2022/04/18 05:05:12;;;;;;;20.73;13.85;;;33.10;86.60;;;;;;4152512;28;20049;-70
2022/04/18 05:07:18;;;;;;;20.83;13.30;;;33.30;86.30;;;;;;4151720;28;20073;-71
2022/04/18 05:09:38;;;;;;;20.35;12.90;;;33.40;86.10;;;;;;4141251;28;20038;-71
2022/04/18 05:11:44;;;;;;;18.85;13.60;;;33.30;86.60;;;;;;4145367;28;20034;-73
2022/04/18 05:13:52;;;;;;;20.10;13.48;;;33.30;85.80;;;;;;4126817;28;20078;-72
2022/04/18 05:16:05;;;;;;;25.55;13.23;;;33.30;85.40;;;;;;4161280;28;20124;-72
2022/04/18 05:18:27;;;;;;;19.90;13.88;;;33.30;85.60;;;;;;4153495;28;20662;-71
2022/04/18 05:20:34;;;;;;;24.38;14.80;;;33.40;86.00;;;;;;4157215;28;20051;-71
2022/04/18 05:22:39;;;;;;;19.60;13.68;;;33.50;85.10;;;;;;4164556;28;20538;-71
2022/04/18 05:24:55;;;;;;;;;;;33.50;84.70;;;;;;4144230;28;20846;-72
2022/04/18 05:27:17;;;;;;;18.33;12.57;;;33.50;84.10;;;;;;4155851;28;20016;-72
2022/04/18 05:29:22;;;;;;;20.83;13.80;;;33.60;84.20;;;;;;4136159;28;20041;-72
2022/04/18 05:31:30;;;;;;;24.50;14.27;;;33.80;84.20;;;;;;4150111;28;20045;-72
2022/04/18 05:33:38;;;;;;;18.33;13.65;;;33.80;83.60;;;;;;4154080;28;20568;-72
2022/04/18 05:36:01;;;;;;;19.95;14.00;;;33.80;83.50;;;;;;4146348;28;20101;-72
2022/04/18 05:38:11;;;;;;;19.33;12.77;;;33.80;83.50;;;;;;4153614;28;20516;-71
2022/04/18 05:40:24;;;;;;;21.10;13.30;;;33.80;84.10;;;;;;4163436;28;20045;-72
2022/04/18 05:42:30;;;;;;;19.42;12.93;;;33.60;83.90;;;;;;4164068;28;20053;-72
2022/04/18 05:44:43;;;;;;;17.55;12.50;;;33.50;83.70;;;;;;4149735;28;20053;-71
2022/04/18 05:46:49;;;;;;;26.25;13.85;;;33.40;84.20;;;;;;4161934;28;20045;-71
2022/04/18 05:48:55;;;;;;;21.20;12.82;;;33.20;84.10;;;;;;4170687;28;20064;-71
2022/04/18 05:51:02;;;;;;;20.98;12.75;;;33.00;84.60;;;;;;4139437;28;20081;-72
2022/04/18 05:53:07;;;;;;;18.88;12.20;;;32.90;85.10;;;;;;4147817;28;20548;-71
2022/04/18 05:55:25;;;;;;;21.13;12.65;;;32.80;85.30;;;;;;4148483;28;20053;-71
2022/04/18 05:57:32;;;;;;;18.50;12.63;;;32.90;85.60;;;;;;4170359;28;20528;-72
2022/04/18 05:59:41;;;;;;;21.40;13.60;;;32.90;85.30;;;;;;4155978;28;20704;-71
2022/04/18 06:01:52;;;;;;;20.27;13.63;;;32.80;85.70;;;;;;4170337;28;20119;-70
2022/04/18 06:04:19;;;;;;;19.25;13.55;;;32.80;85.90;;;;;;4170224;28;20054;-73
2022/04/18 06:06:37;;;;;;;19.48;12.70;;;32.60;85.90;;;;;;4178629;28;20057;-70
2022/04/18 06:08:44;;;;;;;19.83;12.80;;;32.60;85.90;;;;;;4183526;28;20112;-74
2022/04/18 06:10:58;;;;;;;19.67;13.38;;;32.30;85.40;;;;;;4128540;28;20097;-74
2022/04/18 06:13:26;;;;;;;23.02;14.30;;;32.20;86.00;;;;;;4156160;28;20060;-71
2022/04/18 06:15:33;;;;;;;22.48;14.00;;;32.10;86.80;;;;;;4162419;28;20060;-71
2022/04/18 06:17:38;;;;;;;22.48;13.63;;;32.20;87.90;;;;;;4150850;28;20038;-72
2022/04/18 06:19:47;;;;;;;25.38;14.43;;;32.20;86.40;;;;;;4164301;28;20046;-70
2022/04/18 06:21:52;;;;;;;19.83;13.25;;;32.20;86.10;;;;;;4147033;28;20085;-73
2022/04/18 06:24:02;;;;;;;20.17;13.75;;;32.20;86.80;;;;;;4154463;28;20057;-71
2022/04/18 06:26:21;;;;;;;22.88;12.00;;;32.40;86.70;;;;;;4150150;28;20049;-72
2022/04/18 06:28:26;;;;;;;20.23;12.95;;;32.50;86.00;;;;;;4148481;28;20064;-74
2022/04/18 06:30:33;;;;;;;23.35;13.00;;;32.40;85.70;;;;;;4157229;28;20057;-73
2022/04/18 06:32:59;;;;;;;19.92;12.23;;;32.40;85.90;;;;;;4148307;28;20096;-72
2022/04/18 06:35:07;;;;;;;17.08;12.20;;;32.50;85.90;;;;;;4157498;28;20049;-72
2022/04/18 06:37:13;;;;;;;24.02;12.98;;;32.60;85.50;;;;;;4120635;28;20165;-73
2022/04/18 06:39:28;;;;;;;16.48;12.65;;;32.70;85.20;;;;;;4150418;28;20045;-73
2022/04/18 06:41:43;;;;;;;18.05;11.93;;;32.70;85.30;;;;;;4151188;28;20069;-73
2022/04/18 06:43:56;;;;;;;18.80;12.30;;;32.70;84.80;;;;;;4160035;28;20041;-71
2022/04/18 06:46:04;;;;;;;18.92;11.82;;;32.70;84.90;;;;;;4167989;28;20100;-71
2022/04/18 06:48:11;;;;;;;19.13;11.85;;;32.60;85.00;;;;;;4153718;28;20632;-71
2022/04/18 06:50:28;;;;;;;17.77;12.32;;;32.60;85.10;;;;;;4147694;28;20111;-71
2022/04/18 06:52:50;;;;;;;19.08;13.23;;;32.60;85.20;;;;;;4149796;28;20068;-72
2022/04/18 06:55:14;;;;;;;16.77;12.23;;;32.50;84.80;;;;;;4154488;28;20040;-72
2022/04/18 06:57:20;;;;;;;22.88;12.65;;;32.40;85.70;;;;;;4160153;28;20092;-71
2022/04/18 06:59:34;;;;;;;19.30;12.05;;;32.30;85.40;;;;;;4148225;28;20064;-71
2022/04/18 07:01:41;;;;;;;21.92;12.35;;;32.20;86.00;;;;;;4158947;28;20046;-73
2022/04/18 07:03:48;;;;;;;21.63;12.82;;;32.20;86.00;;;;;;4130093;28;20046;-73
2022/04/18 07:05:55;;;;;;;19.52;12.65;;;32.20;86.00;;;;;;4155576;28;20055;-73
2022/04/18 07:08:01;;;;;;;17.80;12.55;;;32.20;86.30;;;;;;4155287;28;20048;-73
2022/04/18 07:10:09;;;;;;;18.50;12.43;;;32.20;86.80;;;;;;4138535;28;20109;-73
2022/04/18 07:12:14;;;;;;;16.42;11.45;;;32.10;86.80;;;;;;4137401;28;20046;-73
2022/04/18 07:14:21;;;;;;;25.98;13.18;;;32.10;87.00;;;;;;4124723;28;20050;-75
2022/04/18 07:16:32;;;;;;;19.90;12.80;;;32.00;87.30;;;;;;4147946;28;20042;-73
2022/04/18 07:18:39;;;;;;;22.17;12.18;;;32.00;87.90;;;;;;4146679;28;20069;-73
2022/04/18 07:20:49;;;;;;;19.42;11.65;;;32.00;88.00;;;;;;4158665;28;20044;-72
2022/04/18 07:22:54;;;;;;;26.10;12.23;;;31.80;88.10;;;;;;4151327;28;20481;-73
2022/04/18 07:25:04;;;;;;;17.60;11.70;;;31.60;88.40;;;;;;4150733;28;20037;-74
2022/04/18 07:27:12;;;;;;;20.75;12.10;;;31.60;88.30;;;;;;4154267;28;20124;-74
2022/04/18 07:29:26;;;;;;;19.85;12.57;;;31.70;88.00;;;;;;4117998;28;20649;-74
2022/04/18 07:31:33;;;;;;;20.27;11.93;;;31.70;87.60;;;;;;4158539;28;20072;-74
2022/04/18 07:33:38;;;;;;;22.08;12.10;;;31.60;87.60;;;;;;4145970;28;20040;-73
2022/04/18 07:35:50;;;;;;;20.95;11.98;;;31.80;87.70;;;;;;4156718;28;20507;-74
2022/04/18 07:40:16;;;;;;;19.38;12.35;;;31.90;87.50;;;;;;4144277;28;20053;-73
2022/04/18 07:42:23;;;;;;;23.75;11.63;;;31.90;87.70;;;;;;4139505;28;20062;-74
2022/04/18 07:44:30;;;;;;;17.05;11.63;;;31.90;87.80;;;;;;4161897;28;20104;-74
2022/04/18 07:46:39;;;;;;;21.48;11.88;;;31.90;87.10;;;;;;4156052;28;20418;-74
2022/04/18 07:49:00;;;;;;;22.98;12.13;;;31.80;86.80;;;;;;4154281;28;20041;-74
2022/04/18 07:53:29;;;;;;;18.63;12.82;;;31.80;86.90;;;;;;4174266;28;20143;-75
2022/04/18 07:55:36;;;;;;;22.58;12.32;;;31.90;86.90;;;;;;4116856;28;20077;-74
2022/04/18 07:57:42;;;;;;;19.50;13.00;;;31.60;86.90;;;;;;4154146;28;20929;-75
2022/04/18 07:59:51;;;;;;;20.90;12.50;;;31.70;87.00;;;;;;4173858;28;20064;-73
2022/04/18 08:02:00;;;;;;;22.17;12.88;;;31.60;87.20;;;;;;4159626;28;20136;-75
2022/04/18 08:04:27;;;;;;;17.67;12.70;;;31.60;87.50;;;;;;4176128;28;20132;-72
2022/04/18 08:06:33;;;;;;;19.38;12.50;;;31.50;87.80;;;;;;4139452;28;20046;-74
2022/04/18 08:08:51;;;;;;;32.50;13.57;;;31.50;87.60;;;;;;4167319;28;20041;-75
2022/04/18 08:10:59;;;;;;;20.77;13.82;;;31.40;88.10;;;;;;4173537;28;20064;-73
2022/04/18 08:13:06;;;;;;;24.95;13.55;;;31.40;88.00;;;;;;4166258;28;20076;-75
2022/04/18 08:15:12;;;;;;;22.20;13.38;;;31.30;88.60;;;;;;4157150;28;20056;-73
2022/04/18 08:17:19;;;;;;;23.17;13.65;;;31.30;88.50;;;;;;4155551;28;20049;-74
2022/04/18 08:19:33;;;;;;;26.30;13.35;;;31.20;88.70;;;;;;4149305;28;20125;-74
2022/04/18 08:21:40;;;;;;;20.40;13.57;;;31.20;89.20;;;;;;4169899;28;20523;-74
2022/04/18 08:23:47;;;;;;;20.10;14.32;;;31.10;89.40;;;;;;4149557;28;20689;-73
2022/04/18 08:26:13;;;;;;;21.88;13.68;;;31.10;89.70;;;;;;4167019;28;20508;-75
2022/04/18 08:28:35;;;;;;;21.57;14.37;;;31.10;90.20;;;;;;4117278;28;20054;-74
2022/04/18 08:30:40;;;;;;;23.23;14.52;;;31.00;90.50;;;;;;4154476;28;20046;-74
2022/04/18 08:33:04;;;;;;;21.70;14.02;;;30.90;90.70;;;;;;4133541;28;20588;-75
2022/04/18 08:35:11;;;;;;;21.88;15.07;;;30.90;90.80;;;;;;4140570;28;20034;-74
2022/04/18 08:37:18;;;;;;;17.77;14.05;;;30.70;91.10;;;;;;4151823;28;20141;-74
2022/04/18 08:39:35;;;;;;;21.77;14.23;;;30.60;91.20;;;;;;4153905;28;20042;-75
2022/04/18 08:41:45;;;;;;;21.65;14.27;;;30.60;91.40;;;;;;4154713;28;20064;-75
2022/04/18 08:44:00;;;;;;;22.63;14.80;;;30.60;91.50;;;;;;4146906;28;20542;-74
2022/04/18 08:46:08;;;;;;;25.17;15.90;;;30.40;91.70;;;;;;4146996;28;20100;-75
2022/04/18 08:52:54;;;;;;;22.70;15.02;;;30.20;92.90;;;;;;4167051;28;20049;-75
2022/04/18 08:55:11;;;;;;;25.42;15.25;;;30.30;93.00;;;;;;4153407;28;20119;-73
2022/04/18 08:57:18;;;;;;;24.70;14.88;;;30.00;93.20;;;;;;4158170;28;20045;-75
2022/04/18 08:59:23;;;;;;;26.02;15.40;;;29.90;93.50;;;;;;4160688;28;20050;-74
2022/04/18 09:01:30;;;;;;;25.10;15.68;;;29.90;93.60;;;;;;4128290;28;20042;-73
2022/04/18 09:03:47;;;;;;;27.48;17.05;;;30.00;93.50;;;;;;4151364;28;20053;-73
2022/04/18 09:06:05;;;;;;;27.35;17.10;;;30.00;93.60;;;;;;4161852;28;20041;-74
2022/04/18 09:08:12;;;;;;;23.20;16.17;;;30.00;93.80;;;;;;4128856;28;20046;-73
2022/04/18 09:10:24;;;;;;;25.92;15.20;;;29.90;93.70;;;;;;4158065;28;20072;-74
2022/04/18 09:12:31;;;;;;;24.67;15.73;;;30.00;93.80;;;;;;4161531;28;20697;-73
2022/04/18 09:14:51;;;;;;;22.98;15.63;;;30.00;94.40;;;;;;4168580;28;20068;-74
2022/04/18 09:17:05;;;;;;;25.73;16.53;;;30.00;94.50;;;;;;4146866;28;20125;-75
2022/04/18 09:19:22;;;;;;;24.13;15.18;;;29.90;94.40;;;;;;4151824;28;20304;-76
2022/04/18 09:21:30;;;;;;;27.10;17.50;;;29.90;94.40;;;;;;4144845;28;20045;-74
2022/04/18 09:23:39;;;;;;;25.20;15.27;;;29.70;94.80;;;;;;4159270;28;20057;-75
2022/04/18 09:26:02;;;;;;;19.00;12.45;;;29.30;94.40;;;;;;4135177;28;20050;-75
2022/04/18 09:28:11;;;;;;;22.42;12.57;;;28.90;94.10;;;;;;4145903;28;20423;-77
2022/04/18 09:30:17;;;;;;;21.60;12.07;;;28.80;94.50;;;;;;4138057;28;20038;-76
2022/04/18 09:32:42;;;;;;;18.58;12.30;;;28.70;94.70;;;;;;4172239;28;20478;-78
2022/04/18 09:35:02;;;;;;;20.45;12.25;;;28.30;95.10;;;;;;4138550;28;20077;-71
2022/04/18 09:37:17;;;;;;;;;;;28.00;96.20;;;;;;4141276;28;20038;-74
2022/04/18 09:39:24;;;;;;;19.70;11.40;;;28.00;96.20;;;;;;4141329;28;20087;-75
2022/04/18 09:41:44;;;;;;;19.25;11.38;;;27.90;96.20;;;;;;4154384;28;20165;-75
2022/04/18 09:44:01;;;;;;;20.45;12.32;;;28.00;96.20;;;;;;4148965;28;20064;-73
2022/04/18 09:46:14;;;;;;;17.33;11.65;;;27.90;96.30;;;;;;4135117;28;20189;-77
2022/04/18 09:48:31;;;;;;;20.15;13.05;;;28.10;96.30;;;;;;4150448;28;20068;-76
2022/04/18 09:53:00;;;;;;;25.33;13.18;;;27.80;96.40;;;;;;4164731;28;20037;-74
2022/04/18 09:55:08;;;;;;;17.17;11.98;;;27.80;96.20;;;;;;4162271;28;20596;-74
2022/04/18 09:57:15;;;;;;;20.15;13.05;;;28.00;95.80;;;;;;4130783;28;20056;-73
2022/04/18 09:59:20;;;;;;;19.50;12.05;;;28.00;95.80;;;;;;4161923;28;20052;-74
2022/04/18 10:01:26;;;;;;;20.63;14.55;;;28.10;95.50;;;;;;4161985;28;20872;-75
2022/04/18 10:03:35;;;;;;;18.50;14.05;;;28.20;95.40;;;;;;4162135;28;20144;-74
2022/04/18 10:05:41;;;;;;;22.27;13.35;;;27.70;95.50;;;;;;4138472;28;20050;-76
2022/04/18 10:07:47;;;;;;;19.20;11.85;;;27.60;95.70;;;;;;4135097;28;20452;-77
2022/04/18 10:09:52;;;;;;;19.73;12.25;;;27.60;95.10;;;;;;4128771;28;20054;-77
2022/04/18 10:11:57;;;;;;;15.88;11.32;;;27.70;95.10;;;;;;4162133;28;20127;-78
2022/04/18 10:14:04;;;;;;;18.67;11.85;;;27.70;94.90;;;;;;4163009;28;20104;-78
2022/04/18 10:16:10;;;;;;;18.45;11.88;;;27.70;94.90;;;;;;4148137;28;20057;-78
2022/04/18 10:18:15;;;;;;;19.17;11.48;;;27.80;94.60;;;;;;4173807;28;20408;-77
2022/04/18 10:20:28;;;;;;;15.02;11.00;;;27.80;94.80;;;;;;4138375;28;20133;-79
2022/04/18 10:22:51;;;;;;;18.55;12.35;;;28.00;94.40;;;;;;4170814;28;20087;-77
2022/04/18 10:25:14;;;;;;;19.67;10.73;;;27.90;94.50;;;;;;4143371;28;20096;-78
2022/04/18 10:27:30;;;;;;;17.42;11.07;;;27.80;94.70;;;;;;4118040;28;20057;-78
2022/04/18 10:29:49;;;;;;;19.05;11.38;;;27.90;94.50;;;;;;4131516;28;20046;-76
2022/04/18 10:31:54;;;;;;;18.55;11.85;;;28.00;94.50;;;;;;4138439;28;20873;-75
2022/04/18 10:34:01;;;;;;;18.27;11.88;;;28.20;95.10;;;;;;4110204;28;20524;-76
2022/04/18 10:36:09;;;;;;;16.27;12.25;;;28.10;95.10;;;;;;4119161;28;20031;-76
2022/04/18 10:38:14;;;;;;;16.80;11.65;;;28.00;95.10;;;;;;4155088;28;20144;-76
2022/04/18 10:40:20;;;;;;;21.08;11.55;;;27.90;95.40;;;;;;4138023;28;20080;-77
2022/04/18 10:42:29;;;;;;;20.48;12.15;;;27.90;95.60;;;;;;4151064;28;20140;-77
2022/04/18 10:44:34;;;;;;;19.65;12.77;;;27.90;96.10;;;;;;4153522;28;20651;-77
2022/04/18 10:46:42;;;;;;;20.42;11.93;;;28.00;96.20;;;;;;4142723;28;20128;-77
2022/04/18 10:48:57;;;;;;;22.30;12.60;;;27.90;95.80;;;;;;4154062;28;20054;-78
2022/04/18 10:51:04;;;;;;;22.05;13.95;;;27.80;96.50;;;;;;4152979;28;20045;-77
2022/04/18 10:53:32;;;;;;;27.15;15.13;;;27.80;96.60;;;;;;4158439;28;20128;-76
2022/04/18 10:55:39;;;;;;;25.60;15.85;;;28.00;96.70;;;;;;4146025;28;20053;-76
2022/04/18 10:57:44;;;;;;;21.80;14.65;;;28.10;96.40;;;;;;4155359;28;20064;-76
2022/04/18 10:59:59;;;;;;;23.65;14.80;;;28.20;96.20;;;;;;4154444;28;20179;-77
2022/04/18 11:02:07;;;;;;;23.45;14.82;;;28.10;96.50;;;;;;4152801;28;20173;-77
2022/04/18 11:04:14;;;;;;;26.08;14.77;;;28.10;96.40;;;;;;4141410;28;20050;-76
2022/04/18 11:06:24;;;;;;;23.00;15.60;;;28.00;97.10;;;;;;4159043;28;20057;-78
2022/04/18 11:08:33;;;;;;;26.23;16.08;;;28.00;97.10;;;;;;4154818;28;20069;-77
2022/04/18 11:10:38;;;;;;;23.40;16.10;;;28.10;97.70;;;;;;4122613;28;20042;-78
2022/04/18 11:12:44;;;;;;;25.33;16.13;;;28.00;97.20;;;;;;4099462;28;20134;-76
2022/04/18 11:14:52;;;;;;;27.52;15.88;;;28.10;97.10;;;;;;4121086;28;20073;-78
2022/04/18 11:17:01;;;;;;;23.42;15.85;;;28.10;97.30;;;;;;4136417;28;20078;-78
2022/04/18 11:19:15;;;;;;;22.92;14.93;;;28.10;97.40;;;;;;4134608;28;20626;-78